sensor_id;sensor_type;location;lat;lon;timestamp;pressure;altitude;pressure_sealevel;temperature;humidity
24336;BME280;33098;52.400;16.880;2023-05-12T00:01:06;101088.22;;;15.69;41.56
24336;BME280;33098;52.400;16.880;2023-05-12T00:03:34;101087.52;;;15.68;41.66
24336;BME280;33098;52.400;16.880;2023-05-12T00:06:02;101086.33;;;15.68;41.69
24336;BME280;33098;52.400;16.880;2023-05-12T00:08:30;101085.05;;;15.64;41.83
24336;BME280;33098;52.400;16.880;2023-05-12T00:11:03;101083.09;;;15.60;41.89
24336;BME280;33098;52.400;16.880;2023-05-12T00:13:36;101081.56;;;15.57;42.04
24336;BME280;33098;52.400;16.880;2023-05-12T00:16:05;101084.77;;;15.55;42.09
24336;BME280;33098;52.400;16.880;2023-05-12T00:18:31;101081.13;;;15.54;42.09
24336;BME280;33098;52.400;16.880;2023-05-12T00:21:01;101083.35;;;15.51;42.20
24336;BME280;33098;52.400;16.880;2023-05-12T00:23:28;101078.66;;;15.41;42.19
24336;BME280;33098;52.400;16.880;2023-05-12T00:25:55;101079.98;;;15.30;42.28
24336;BME280;33098;52.400;16.880;2023-05-12T00:28:24;101080.36;;;15.24;42.44
24336;BME280;33098;52.400;16.880;2023-05-12T00:30:54;101078.38;;;15.24;42.56
24336;BME280;33098;52.400;16.880;2023-05-12T00:33:21;101078.46;;;15.24;42.47
24336;BME280;33098;52.400;16.880;2023-05-12T00:35:56;101076.76;;;15.20;42.57
24336;BME280;33098;52.400;16.880;2023-05-12T00:38:25;101081.89;;;15.17;42.78
24336;BME280;33098;52.400;16.880;2023-05-12T00:40:55;101081.86;;;15.11;42.79
24336;BME280;33098;52.400;16.880;2023-05-12T00:43:28;101085.33;;;15.10;42.88
24336;BME280;33098;52.400;16.880;2023-05-12T00:45:55;101083.58;;;15.04;42.91
24336;BME280;33098;52.400;16.880;2023-05-12T00:48:22;101084.55;;;14.99;43.00
24336;BME280;33098;52.400;16.880;2023-05-12T00:50:49;101082.66;;;14.92;43.23
24336;BME280;33098;52.400;16.880;2023-05-12T00:53:19;101084.65;;;14.87;43.25
24336;BME280;33098;52.400;16.880;2023-05-12T00:55:46;101089.41;;;14.85;43.37
24336;BME280;33098;52.400;16.880;2023-05-12T00:58:13;101086.89;;;14.76;43.32
24336;BME280;33098;52.400;16.880;2023-05-12T01:00:49;101088.07;;;14.70;43.46
24336;BME280;33098;52.400;16.880;2023-05-12T01:03:19;101087.39;;;14.72;43.47
24336;BME280;33098;52.400;16.880;2023-05-12T01:06:05;101091.48;;;14.72;43.59
24336;BME280;33098;52.400;16.880;2023-05-12T01:08:36;101089.98;;;14.64;43.59
24336;BME280;33098;52.400;16.880;2023-05-12T01:11:04;101091.39;;;14.62;43.67
24336;BME280;33098;52.400;16.880;2023-05-12T01:13:32;101096.48;;;14.62;43.70
24336;BME280;33098;52.400;16.880;2023-05-12T01:16:01;101093.97;;;14.53;43.75
24336;BME280;33098;52.400;16.880;2023-05-12T01:18:32;101097.68;;;14.51;43.90
24336;BME280;33098;52.400;16.880;2023-05-12T01:21:00;101091.86;;;14.50;44.00
24336;BME280;33098;52.400;16.880;2023-05-12T01:23:34;101096.63;;;14.47;44.07
24336;BME280;33098;52.400;16.880;2023-05-12T01:26:08;101094.66;;;14.47;44.07
24336;BME280;33098;52.400;16.880;2023-05-12T01:28:37;101094.77;;;14.48;44.13
24336;BME280;33098;52.400;16.880;2023-05-12T01:31:07;101097.91;;;14.46;44.17
24336;BME280;33098;52.400;16.880;2023-05-12T01:33:37;101094.88;;;14.40;44.26
24336;BME280;33098;52.400;16.880;2023-05-12T01:36:04;101095.60;;;14.36;44.25
24336;BME280;33098;52.400;16.880;2023-05-12T01:38:31;101096.95;;;14.32;44.33
24336;BME280;33098;52.400;16.880;2023-05-12T01:41:00;101099.30;;;14.30;44.38
24336;BME280;33098;52.400;16.880;2023-05-12T01:43:27;101098.05;;;14.19;44.34
24336;BME280;33098;52.400;16.880;2023-05-12T01:45:54;101101.40;;;14.17;44.54
24336;BME280;33098;52.400;16.880;2023-05-12T01:48:21;101102.44;;;14.20;44.65
24336;BME280;33098;52.400;16.880;2023-05-12T01:50:48;101103.39;;;14.17;44.68
24336;BME280;33098;52.400;16.880;2023-05-12T01:53:19;101105.52;;;14.09;44.59
24336;BME280;33098;52.400;16.880;2023-05-12T01:55:46;101105.92;;;13.99;44.67
24336;BME280;33098;52.400;16.880;2023-05-12T01:58:13;101105.48;;;13.94;44.82
24336;BME280;33098;52.400;16.880;2023-05-12T02:00:44;101109.08;;;13.94;45.02
24336;BME280;33098;52.400;16.880;2023-05-12T02:03:16;101109.80;;;14.02;45.01
24336;BME280;33098;52.400;16.880;2023-05-12T02:05:43;101109.80;;;14.04;45.03
24336;BME280;33098;52.400;16.880;2023-05-12T02:08:09;101111.55;;;14.00;44.85
24336;BME280;33098;52.400;16.880;2023-05-12T02:10:38;101111.55;;;14.02;44.98
24336;BME280;33098;52.400;16.880;2023-05-12T02:13:05;101110.61;;;14.05;44.97
24336;BME280;33098;52.400;16.880;2023-05-12T02:15:35;101116.73;;;13.96;44.92
24336;BME280;33098;52.400;16.880;2023-05-12T02:18:02;101116.65;;;13.90;44.95
24336;BME280;33098;52.400;16.880;2023-05-12T02:20:30;101119.65;;;13.88;45.03
24336;BME280;33098;52.400;16.880;2023-05-12T02:22:56;101121.28;;;13.86;45.13
24336;BME280;33098;52.400;16.880;2023-05-12T02:25:29;101121.21;;;13.82;45.20
24336;BME280;33098;52.400;16.880;2023-05-12T02:27:58;101122.14;;;13.82;45.33
24336;BME280;33098;52.400;16.880;2023-05-12T02:30:25;101122.01;;;13.88;45.28
24336;BME280;33098;52.400;16.880;2023-05-12T02:32:52;101124.84;;;13.91;45.18
24336;BME280;33098;52.400;16.880;2023-05-12T02:35:18;101126.06;;;13.86;45.19
24336;BME280;33098;52.400;16.880;2023-05-12T02:37:48;101123.81;;;13.85;45.24
24336;BME280;33098;52.400;16.880;2023-05-12T02:40:17;101127.34;;;13.80;45.21
24336;BME280;33098;52.400;16.880;2023-05-12T02:42:44;101132.43;;;13.72;45.24
24336;BME280;33098;52.400;16.880;2023-05-12T02:45:18;101130.59;;;13.70;45.37
24336;BME280;33098;52.400;16.880;2023-05-12T02:47:44;101132.23;;;13.70;45.43
24336;BME280;33098;52.400;16.880;2023-05-12T02:50:11;101136.17;;;13.65;45.43
24336;BME280;33098;52.400;16.880;2023-05-12T02:52:38;101133.79;;;13.64;45.57
24336;BME280;33098;52.400;16.880;2023-05-12T02:55:06;101136.41;;;13.62;45.53
24336;BME280;33098;52.400;16.880;2023-05-12T02:57:35;101137.42;;;13.61;45.67
24336;BME280;33098;52.400;16.880;2023-05-12T03:00:03;101131.82;;;13.64;45.67
24336;BME280;33098;52.400;16.880;2023-05-12T03:02:32;101132.98;;;13.63;45.60
24336;BME280;33098;52.400;16.880;2023-05-12T03:04:59;101134.20;;;13.56;45.73
24336;BME280;33098;52.400;16.880;2023-05-12T03:07:26;101137.42;;;13.56;45.83
24336;BME280;33098;52.400;16.880;2023-05-12T03:09:59;101133.73;;;13.60;45.87
24336;BME280;33098;52.400;16.880;2023-05-12T03:12:34;101130.38;;;13.57;45.77
24336;BME280;33098;52.400;16.880;2023-05-12T03:15:01;101138.36;;;13.53;45.83
24336;BME280;33098;52.400;16.880;2023-05-12T03:17:30;101139.25;;;13.51;45.91
24336;BME280;33098;52.400;16.880;2023-05-12T03:19:57;101136.80;;;13.48;45.96
24336;BME280;33098;52.400;16.880;2023-05-12T03:22:28;101134.54;;;13.43;46.00
24336;BME280;33098;52.400;16.880;2023-05-12T03:24:57;101134.77;;;13.45;46.18
24336;BME280;33098;52.400;16.880;2023-05-12T03:27:30;101132.94;;;13.47;46.13
24336;BME280;33098;52.400;16.880;2023-05-12T03:29:58;101136.38;;;13.49;46.13
24336;BME280;33098;52.400;16.880;2023-05-12T03:32:34;101135.27;;;13.47;46.14
24336;BME280;33098;52.400;16.880;2023-05-12T03:35:01;101134.83;;;13.48;46.21
24336;BME280;33098;52.400;16.880;2023-05-12T03:37:28;101139.57;;;13.51;46.26
24336;BME280;33098;52.400;16.880;2023-05-12T03:39:54;101139.85;;;13.44;46.18
24336;BME280;33098;52.400;16.880;2023-05-12T03:42:21;101139.38;;;13.41;46.23
24336;BME280;33098;52.400;16.880;2023-05-12T03:44:51;101144.86;;;13.34;46.25
24336;BME280;33098;52.400;16.880;2023-05-12T03:47:18;101149.33;;;13.34;46.47
24336;BME280;33098;52.400;16.880;2023-05-12T03:49:45;101145.88;;;13.37;46.44
24336;BME280;33098;52.400;16.880;2023-05-12T03:52:20;101152.77;;;13.31;46.48
24336;BME280;33098;52.400;16.880;2023-05-12T03:54:47;101151.67;;;13.31;46.61
24336;BME280;33098;52.400;16.880;2023-05-12T03:57:14;101152.08;;;13.37;46.66
24336;BME280;33098;52.400;16.880;2023-05-12T03:59:41;101156.78;;;13.37;46.61
24336;BME280;33098;52.400;16.880;2023-05-12T04:02:10;101156.47;;;13.36;46.66
24336;BME280;33098;52.400;16.880;2023-05-12T04:04:40;101157.42;;;13.40;46.65
24336;BME280;33098;52.400;16.880;2023-05-12T04:07:08;101160.99;;;13.47;46.74
24336;BME280;33098;52.400;16.880;2023-05-12T04:09:35;101163.11;;;13.47;46.57
24336;BME280;33098;52.400;16.880;2023-05-12T04:12:08;101163.77;;;13.45;46.65
24336;BME280;33098;52.400;16.880;2023-05-12T04:14:35;101168.88;;;13.48;46.67
24336;BME280;33098;52.400;16.880;2023-05-12T04:17:04;101166.83;;;13.54;46.68
24336;BME280;33098;52.400;16.880;2023-05-12T04:19:31;101164.23;;;13.55;46.54
24336;BME280;33098;52.400;16.880;2023-05-12T04:21:57;101165.32;;;13.57;46.65
24336;BME280;33098;52.400;16.880;2023-05-12T04:24:26;101170.73;;;13.59;46.57
24336;BME280;33098;52.400;16.880;2023-05-12T04:26:53;101168.86;;;13.60;46.57
24336;BME280;33098;52.400;16.880;2023-05-12T04:29:20;101166.57;;;13.62;46.58
24336;BME280;33098;52.400;16.880;2023-05-12T04:31:53;101176.41;;;13.62;46.50
24336;BME280;33098;52.400;16.880;2023-05-12T04:34:22;101177.95;;;13.65;46.49
24336;BME280;33098;52.400;16.880;2023-05-12T04:36:49;101177.10;;;13.64;46.52
24336;BME280;33098;52.400;16.880;2023-05-12T04:39:16;101178.80;;;13.63;46.53
24336;BME280;33098;52.400;16.880;2023-05-12T04:41:44;101173.85;;;13.62;46.44
24336;BME280;33098;52.400;16.880;2023-05-12T04:44:12;101176.42;;;13.64;46.49
24336;BME280;33098;52.400;16.880;2023-05-12T04:46:41;101176.91;;;13.69;46.51
24336;BME280;33098;52.400;16.880;2023-05-12T04:49:09;101179.30;;;13.72;46.41
24336;BME280;33098;52.400;16.880;2023-05-12T04:51:36;101183.05;;;13.74;46.41
24336;BME280;33098;52.400;16.880;2023-05-12T04:54:11;101189.77;;;13.77;46.55
24336;BME280;33098;52.400;16.880;2023-05-12T04:56:38;101189.52;;;13.80;46.53
24336;BME280;33098;52.400;16.880;2023-05-12T04:59:10;101190.52;;;13.86;46.49
24336;BME280;33098;52.400;16.880;2023-05-12T05:01:37;101192.62;;;13.91;46.44
24336;BME280;33098;52.400;16.880;2023-05-12T05:04:04;101192.91;;;13.94;46.43
24336;BME280;33098;52.400;16.880;2023-05-12T05:06:32;101191.20;;;14.00;46.44
24336;BME280;33098;52.400;16.880;2023-05-12T05:08:59;101193.06;;;14.03;46.44
24336;BME280;33098;52.400;16.880;2023-05-12T05:11:26;101197.03;;;14.11;46.43
24336;BME280;33098;52.400;16.880;2023-05-12T05:13:53;101196.73;;;14.15;46.50
24336;BME280;33098;52.400;16.880;2023-05-12T05:16:20;101196.45;;;14.18;46.45
24336;BME280;33098;52.400;16.880;2023-05-12T05:18:47;101198.35;;;14.24;46.47
24336;BME280;33098;52.400;16.880;2023-05-12T05:21:15;101199.08;;;14.32;46.59
24336;BME280;33098;52.400;16.880;2023-05-12T05:23:41;101199.41;;;14.39;46.49
24336;BME280;33098;52.400;16.880;2023-05-12T05:26:11;101196.58;;;14.45;46.38
24336;BME280;33098;52.400;16.880;2023-05-12T05:28:38;101199.45;;;14.45;46.33
24336;BME280;33098;52.400;16.880;2023-05-12T05:31:05;101198.95;;;14.49;46.34
24336;BME280;33098;52.400;16.880;2023-05-12T05:33:33;101196.47;;;14.55;46.30
24336;BME280;33098;52.400;16.880;2023-05-12T05:36:01;101201.45;;;14.60;46.23
24336;BME280;33098;52.400;16.880;2023-05-12T05:38:34;101200.36;;;14.65;46.28
24336;BME280;33098;52.400;16.880;2023-05-12T05:41:04;101201.39;;;14.67;46.28
24336;BME280;33098;52.400;16.880;2023-05-12T05:43:34;101201.52;;;14.72;46.21
24336;BME280;33098;52.400;16.880;2023-05-12T05:46:02;101201.13;;;14.75;46.13
24336;BME280;33098;52.400;16.880;2023-05-12T05:48:32;101207.29;;;14.80;46.18
24336;BME280;33098;52.400;16.880;2023-05-12T05:51:04;101204.89;;;14.83;46.16
24336;BME280;33098;52.400;16.880;2023-05-12T05:53:32;101208.32;;;14.85;46.13
24336;BME280;33098;52.400;16.880;2023-05-12T05:55:59;101211.38;;;14.82;46.12
24336;BME280;33098;52.400;16.880;2023-05-12T05:58:26;101212.86;;;14.86;46.19
24336;BME280;33098;52.400;16.880;2023-05-12T06:00:54;101211.30;;;14.90;45.98
24336;BME280;33098;52.400;16.880;2023-05-12T06:03:26;101219.89;;;14.94;46.00
24336;BME280;33098;52.400;16.880;2023-05-12T06:05:54;101217.09;;;15.02;45.94
24336;BME280;33098;52.400;16.880;2023-05-12T06:08:23;101224.95;;;15.08;45.93
24336;BME280;33098;52.400;16.880;2023-05-12T06:10:50;101225.30;;;15.14;45.87
24336;BME280;33098;52.400;16.880;2023-05-12T06:13:19;101224.78;;;15.21;45.74
24336;BME280;33098;52.400;16.880;2023-05-12T06:15:45;101226.30;;;15.28;45.81
24336;BME280;33098;52.400;16.880;2023-05-12T06:18:14;101224.58;;;15.34;45.76
24336;BME280;33098;52.400;16.880;2023-05-12T06:20:44;101228.65;;;15.38;45.73
24336;BME280;33098;52.400;16.880;2023-05-12T06:23:12;101232.51;;;15.45;45.71
24336;BME280;33098;52.400;16.880;2023-05-12T06:25:47;101232.21;;;15.55;45.69
24336;BME280;33098;52.400;16.880;2023-05-12T06:28:15;101231.58;;;15.62;45.66
24336;BME280;33098;52.400;16.880;2023-05-12T06:30:45;101231.96;;;15.68;45.67
24336;BME280;33098;52.400;16.880;2023-05-12T06:33:12;101234.83;;;15.74;45.59
24336;BME280;33098;52.400;16.880;2023-05-12T06:35:44;101235.69;;;15.78;45.41
24336;BME280;33098;52.400;16.880;2023-05-12T06:38:11;101237.17;;;15.86;45.51
24336;BME280;33098;52.400;16.880;2023-05-12T06:40:39;101238.13;;;15.94;45.45
24336;BME280;33098;52.400;16.880;2023-05-12T06:43:11;101245.11;;;16.02;45.42
24336;BME280;33098;52.400;16.880;2023-05-12T06:45:38;101244.88;;;16.09;45.31
24336;BME280;33098;52.400;16.880;2023-05-12T06:48:07;101243.42;;;16.15;45.30
24336;BME280;33098;52.400;16.880;2023-05-12T06:50:35;101242.65;;;16.20;45.24
24336;BME280;33098;52.400;16.880;2023-05-12T06:53:05;101241.91;;;16.26;45.25
24336;BME280;33098;52.400;16.880;2023-05-12T06:55:33;101236.64;;;16.33;45.19
24336;BME280;33098;52.400;16.880;2023-05-12T06:58:01;101236.00;;;16.40;45.10
24336;BME280;33098;52.400;16.880;2023-05-12T07:00:28;101240.19;;;16.45;44.99
24336;BME280;33098;52.400;16.880;2023-05-12T07:02:57;101242.58;;;16.50;45.00
24336;BME280;33098;52.400;16.880;2023-05-12T07:05:27;101243.32;;;16.56;44.87
24336;BME280;33098;52.400;16.880;2023-05-12T07:07:54;101238.70;;;16.61;44.84
24336;BME280;33098;52.400;16.880;2023-05-12T07:10:24;101238.90;;;16.65;44.56
24336;BME280;33098;52.400;16.880;2023-05-12T07:12:51;101238.20;;;16.71;44.60
24336;BME280;33098;52.400;16.880;2023-05-12T07:15:18;101230.61;;;16.77;44.51
24336;BME280;33098;52.400;16.880;2023-05-12T07:17:48;101233.89;;;16.87;44.48
24336;BME280;33098;52.400;16.880;2023-05-12T07:20:15;101235.64;;;16.95;44.36
24336;BME280;33098;52.400;16.880;2023-05-12T07:22:42;101227.92;;;17.03;44.22
24336;BME280;33098;52.400;16.880;2023-05-12T07:25:09;101233.59;;;17.08;44.14
24336;BME280;33098;52.400;16.880;2023-05-12T07:27:38;101232.83;;;17.13;43.98
24336;BME280;33098;52.400;16.880;2023-05-12T07:30:08;101230.08;;;17.19;43.97
24336;BME280;33098;52.400;16.880;2023-05-12T07:32:44;101228.77;;;17.25;43.99
24336;BME280;33098;52.400;16.880;2023-05-12T07:35:11;101227.42;;;17.31;43.84
24336;BME280;33098;52.400;16.880;2023-05-12T07:37:38;101228.07;;;17.40;43.81
24336;BME280;33098;52.400;16.880;2023-05-12T07:40:07;101231.15;;;17.49;43.55
24336;BME280;33098;52.400;16.880;2023-05-12T07:42:34;101230.91;;;17.55;43.61
24336;BME280;33098;52.400;16.880;2023-05-12T07:45:00;101226.71;;;17.61;43.46
24336;BME280;33098;52.400;16.880;2023-05-12T07:47:31;101233.33;;;17.67;43.31
24336;BME280;33098;52.400;16.880;2023-05-12T07:50:00;101233.38;;;17.74;43.24
24336;BME280;33098;52.400;16.880;2023-05-12T07:52:33;101232.82;;;17.80;43.15
24336;BME280;33098;52.400;16.880;2023-05-12T07:55:00;101230.46;;;17.86;42.98
24336;BME280;33098;52.400;16.880;2023-05-12T07:57:26;101229.36;;;17.90;43.05
24336;BME280;33098;52.400;16.880;2023-05-12T08:00:04;101231.70;;;17.98;43.01
24336;BME280;33098;52.400;16.880;2023-05-12T08:02:48;101229.27;;;18.04;42.84
24336;BME280;33098;52.400;16.880;2023-05-12T08:05:19;101229.77;;;18.08;42.63
24336;BME280;33098;52.400;16.880;2023-05-12T08:07:48;101224.93;;;18.11;42.63
24336;BME280;33098;52.400;16.880;2023-05-12T08:10:15;101227.11;;;18.15;42.44
24336;BME280;33098;52.400;16.880;2023-05-12T08:12:51;101230.73;;;18.22;42.48
24336;BME280;33098;52.400;16.880;2023-05-12T08:15:21;101228.63;;;18.27;42.39
24336;BME280;33098;52.400;16.880;2023-05-12T08:17:52;101235.37;;;18.32;42.33
24336;BME280;33098;52.400;16.880;2023-05-12T08:20:21;101233.63;;;18.37;42.10
24336;BME280;33098;52.400;16.880;2023-05-12T08:22:53;101226.98;;;18.44;41.84
24336;BME280;33098;52.400;16.880;2023-05-12T08:25:30;101231.42;;;18.50;41.71
24336;BME280;33098;52.400;16.880;2023-05-12T08:27:57;101231.38;;;18.56;41.57
24336;BME280;33098;52.400;16.880;2023-05-12T08:30:26;101223.34;;;18.61;41.39
24336;BME280;33098;52.400;16.880;2023-05-12T08:32:54;101225.80;;;18.67;41.43
24336;BME280;33098;52.400;16.880;2023-05-12T08:35:25;101221.38;;;18.73;41.34
24336;BME280;33098;52.400;16.880;2023-05-12T08:37:52;101221.79;;;18.82;41.08
24336;BME280;33098;52.400;16.880;2023-05-12T08:40:23;101221.89;;;18.86;40.89
24336;BME280;33098;52.400;16.880;2023-05-12T08:45:51;101222.86;;;18.98;40.65
24336;BME280;33098;52.400;16.880;2023-05-12T08:48:28;101225.48;;;19.02;40.53
24336;BME280;33098;52.400;16.880;2023-05-12T08:51:00;101237.55;;;19.05;40.21
24336;BME280;33098;52.400;16.880;2023-05-12T08:53:28;101237.80;;;19.12;40.09
24336;BME280;33098;52.400;16.880;2023-05-12T08:55:59;101233.59;;;19.18;40.02
24336;BME280;33098;52.400;16.880;2023-05-12T08:58:27;101229.89;;;19.24;39.80
24336;BME280;33098;52.400;16.880;2023-05-12T09:00:54;101232.59;;;19.31;39.65
24336;BME280;33098;52.400;16.880;2023-05-12T09:03:22;101228.82;;;19.36;39.70
24336;BME280;33098;52.400;16.880;2023-05-12T09:05:49;101234.31;;;19.40;39.40
24336;BME280;33098;52.400;16.880;2023-05-12T09:08:22;101238.86;;;19.45;38.96
24336;BME280;33098;52.400;16.880;2023-05-12T09:10:55;101232.34;;;19.49;38.82
24336;BME280;33098;52.400;16.880;2023-05-12T09:15:59;101233.54;;;19.58;38.39
24336;BME280;33098;52.400;16.880;2023-05-12T09:18:46;101238.66;;;19.63;38.23
24336;BME280;33098;52.400;16.880;2023-05-12T09:21:19;101240.98;;;19.70;38.14
24336;BME280;33098;52.400;16.880;2023-05-12T09:23:55;101242.91;;;19.77;37.95
24336;BME280;33098;52.400;16.880;2023-05-12T09:26:23;101240.71;;;19.85;37.84
24336;BME280;33098;52.400;16.880;2023-05-12T09:29:03;101242.39;;;19.89;37.70
24336;BME280;33098;52.400;16.880;2023-05-12T09:31:33;101240.07;;;19.94;37.74
24336;BME280;33098;52.400;16.880;2023-05-12T09:34:06;101238.67;;;19.99;37.94
24336;BME280;33098;52.400;16.880;2023-05-12T09:36:37;101236.10;;;20.08;37.77
24336;BME280;33098;52.400;16.880;2023-05-12T09:39:08;101239.30;;;20.16;37.53
24336;BME280;33098;52.400;16.880;2023-05-12T09:41:40;101238.25;;;20.22;37.63
24336;BME280;33098;52.400;16.880;2023-05-12T09:44:14;101234.70;;;20.27;37.60
24336;BME280;33098;52.400;16.880;2023-05-12T09:46:45;101231.60;;;20.32;37.35
24336;BME280;33098;52.400;16.880;2023-05-12T09:49:23;101228.27;;;20.41;37.54
24336;BME280;33098;52.400;16.880;2023-05-12T09:51:55;101232.60;;;20.52;37.27
24336;BME280;33098;52.400;16.880;2023-05-12T09:54:26;101230.89;;;20.60;37.09
24336;BME280;33098;52.400;16.880;2023-05-12T09:57:03;101238.11;;;20.68;36.95
24336;BME280;33098;52.400;16.880;2023-05-12T09:59:32;101231.91;;;20.76;36.87
24336;BME280;33098;52.400;16.880;2023-05-12T10:02:02;101229.20;;;20.78;36.83
24336;BME280;33098;52.400;16.880;2023-05-12T10:04:46;101237.77;;;20.87;36.76
24336;BME280;33098;52.400;16.880;2023-05-12T10:07:15;101239.24;;;20.99;36.64
24336;BME280;33098;52.400;16.880;2023-05-12T10:09:44;101234.07;;;21.09;36.48
24336;BME280;33098;52.400;16.880;2023-05-12T10:12:28;101230.02;;;21.19;36.29
24336;BME280;33098;52.400;16.880;2023-05-12T10:14:58;101230.11;;;21.34;36.17
24336;BME280;33098;52.400;16.880;2023-05-12T10:17:31;101227.73;;;21.50;35.87
24336;BME280;33098;52.400;16.880;2023-05-12T10:20:02;101221.27;;;21.62;35.81
24336;BME280;33098;52.400;16.880;2023-05-12T10:22:33;101221.35;;;21.78;35.55
24336;BME280;33098;52.400;16.880;2023-05-12T10:25:00;101211.56;;;21.90;35.71
24336;BME280;33098;52.400;16.880;2023-05-12T10:27:32;101213.46;;;21.99;35.44
24336;BME280;33098;52.400;16.880;2023-05-12T10:30:00;101213.94;;;22.09;35.16
24336;BME280;33098;52.400;16.880;2023-05-12T10:32:30;101211.20;;;22.20;35.10
24336;BME280;33098;52.400;16.880;2023-05-12T10:35:10;101207.98;;;22.31;35.20
24336;BME280;33098;52.400;16.880;2023-05-12T10:37:41;101205.77;;;22.39;34.78
24336;BME280;33098;52.400;16.880;2023-05-12T10:40:08;101204.87;;;22.49;34.86
24336;BME280;33098;52.400;16.880;2023-05-12T10:42:41;101212.08;;;22.64;34.54
24336;BME280;33098;52.400;16.880;2023-05-12T10:45:17;101214.56;;;22.79;33.97
24336;BME280;33098;52.400;16.880;2023-05-12T10:47:46;101211.91;;;22.89;33.78
24336;BME280;33098;52.400;16.880;2023-05-12T10:50:27;101211.89;;;22.98;33.37
24336;BME280;33098;52.400;16.880;2023-05-12T10:52:55;101208.42;;;23.06;33.21
24336;BME280;33098;52.400;16.880;2023-05-12T10:55:41;101206.55;;;23.12;33.16
24336;BME280;33098;52.400;16.880;2023-05-12T10:58:12;101206.94;;;23.24;33.41
24336;BME280;33098;52.400;16.880;2023-05-12T11:00:49;101196.23;;;23.37;33.35
24336;BME280;33098;52.400;16.880;2023-05-12T11:03:22;101199.04;;;23.51;33.56
24336;BME280;33098;52.400;16.880;2023-05-12T11:06:04;101209.70;;;23.64;33.33
24336;BME280;33098;52.400;16.880;2023-05-12T11:08:31;101207.63;;;23.83;33.15
24336;BME280;33098;52.400;16.880;2023-05-12T11:11:03;101200.59;;;23.99;33.01
24336;BME280;33098;52.400;16.880;2023-05-12T11:13:34;101208.44;;;24.13;32.82
24336;BME280;33098;52.400;16.880;2023-05-12T11:16:01;101203.92;;;24.22;32.66
24336;BME280;33098;52.400;16.880;2023-05-12T11:18:28;101211.10;;;24.29;32.62
24336;BME280;33098;52.400;16.880;2023-05-12T11:20:55;101214.36;;;24.40;32.51
24336;BME280;33098;52.400;16.880;2023-05-12T11:23:26;101198.65;;;24.55;32.40
24336;BME280;33098;52.400;16.880;2023-05-12T11:25:58;101201.14;;;24.72;32.28
24336;BME280;33098;52.400;16.880;2023-05-12T11:28:25;101201.45;;;24.89;31.94
24336;BME280;33098;52.400;16.880;2023-05-12T11:30:52;101205.44;;;25.02;31.97
24336;BME280;33098;52.400;16.880;2023-05-12T11:33:20;101202.77;;;25.14;31.80
24336;BME280;33098;52.400;16.880;2023-05-12T11:35:50;101196.32;;;25.29;31.79
24336;BME280;33098;52.400;16.880;2023-05-12T11:38:18;101198.19;;;25.44;31.75
24336;BME280;33098;52.400;16.880;2023-05-12T11:40:47;101194.04;;;25.61;31.48
24336;BME280;33098;52.400;16.880;2023-05-12T11:43:19;101189.39;;;25.80;31.21
24336;BME280;33098;52.400;16.880;2023-05-12T11:45:50;101184.58;;;25.97;31.30
24336;BME280;33098;52.400;16.880;2023-05-12T11:48:18;101191.15;;;26.13;31.18
24336;BME280;33098;52.400;16.880;2023-05-12T11:50:51;101196.06;;;26.30;31.02
24336;BME280;33098;52.400;16.880;2023-05-12T11:53:21;101193.36;;;26.57;30.92
24336;BME280;33098;52.400;16.880;2023-05-12T11:55:51;101193.40;;;26.75;30.47
24336;BME280;33098;52.400;16.880;2023-05-12T11:58:26;101191.72;;;26.86;30.28
24336;BME280;33098;52.400;16.880;2023-05-12T12:01:08;101195.90;;;26.97;29.87
24336;BME280;33098;52.400;16.880;2023-05-12T12:03:47;101195.71;;;27.14;29.49
24336;BME280;33098;52.400;16.880;2023-05-12T12:06:15;101195.27;;;27.28;29.35
24336;BME280;33098;52.400;16.880;2023-05-12T12:08:50;101197.19;;;27.37;29.15
24336;BME280;33098;52.400;16.880;2023-05-12T12:11:20;101195.07;;;27.51;29.17
24336;BME280;33098;52.400;16.880;2023-05-12T12:13:52;101192.94;;;27.69;29.07
24336;BME280;33098;52.400;16.880;2023-05-12T12:16:26;101190.20;;;27.89;29.02
24336;BME280;33098;52.400;16.880;2023-05-12T12:18:53;101188.84;;;28.12;28.62
24336;BME280;33098;52.400;16.880;2023-05-12T12:21:23;101188.31;;;28.22;28.58
24336;BME280;33098;52.400;16.880;2023-05-12T12:23:51;101185.98;;;28.31;28.52
24336;BME280;33098;52.400;16.880;2023-05-12T12:26:18;101186.83;;;28.43;28.71
24336;BME280;33098;52.400;16.880;2023-05-12T12:28:47;101186.94;;;28.69;28.45
24336;BME280;33098;52.400;16.880;2023-05-12T12:31:17;101187.13;;;28.92;28.32
24336;BME280;33098;52.400;16.880;2023-05-12T12:33:44;101185.65;;;29.13;27.93
24336;BME280;33098;52.400;16.880;2023-05-12T12:36:11;101181.84;;;29.21;27.77
24336;BME280;33098;52.400;16.880;2023-05-12T12:38:38;101187.44;;;29.41;27.74
24336;BME280;33098;52.400;16.880;2023-05-12T12:41:07;101183.36;;;29.65;27.94
24336;BME280;33098;52.400;16.880;2023-05-12T12:43:34;101185.40;;;29.88;27.66
24336;BME280;33098;52.400;16.880;2023-05-12T12:46:01;101175.53;;;30.08;27.21
24336;BME280;33098;52.400;16.880;2023-05-12T12:48:28;101180.04;;;30.19;27.15
24336;BME280;33098;52.400;16.880;2023-05-12T12:50:59;101177.88;;;30.25;26.78
24336;BME280;33098;52.400;16.880;2023-05-12T12:53:26;101167.05;;;30.37;26.59
24336;BME280;33098;52.400;16.880;2023-05-12T12:55:59;101171.84;;;30.50;26.72
24336;BME280;33098;52.400;16.880;2023-05-12T12:58:30;101174.42;;;30.79;26.63